sensor_id;sensor_type;location;lat;lon;timestamp;pressure;altitude;pressure_sealevel;temperature;humidity
48862;BME280;34681;49.188;-0.374;2023-01-25T00:02:12;103447.88;;;4.85;67.72
48862;BME280;34681;49.188;-0.374;2023-01-25T00:04:37;103448.34;;;5.30;65.98
48862;BME280;34681;49.188;-0.374;2023-01-25T00:07:03;103448.44;;;4.97;66.34
48862;BME280;34681;49.188;-0.374;2023-01-25T00:09:28;103446.16;;;5.12;66.48
48862;BME280;34681;49.188;-0.374;2023-01-25T00:11:54;103455.44;;;5.04;66.33
48862;BME280;34681;49.188;-0.374;2023-01-25T00:14:22;103449.34;;;4.96;66.47
48862;BME280;34681;49.188;-0.374;2023-01-25T00:16:47;103452.81;;;4.70;67.12
48862;BME280;34681;49.188;-0.374;2023-01-25T00:19:12;103452.56;;;4.47;68.17
48862;BME280;34681;49.188;-0.374;2023-01-25T00:21:38;103456.63;;;4.94;66.54
48862;BME280;34681;49.188;-0.374;2023-01-25T00:24:04;103452.06;;;4.65;66.89
48862;BME280;34681;49.188;-0.374;2023-01-25T00:26:31;103455.72;;;4.64;67.80
48862;BME280;34681;49.188;-0.374;2023-01-25T00:28:57;103448.50;;;4.31;68.08
48862;BME280;34681;49.188;-0.374;2023-01-25T00:34:04;103451.84;;;4.40;68.00
48862;BME280;34681;49.188;-0.374;2023-01-25T00:39:03;103445.13;;;4.55;66.93
48862;BME280;34681;49.188;-0.374;2023-01-25T00:41:28;103443.28;;;4.23;67.97
48862;BME280;34681;49.188;-0.374;2023-01-25T00:43:54;103441.94;;;4.39;68.37
48862;BME280;34681;49.188;-0.374;2023-01-25T00:46:20;103437.25;;;4.77;67.31
48862;BME280;34681;49.188;-0.374;2023-01-25T00:48:45;103438.22;;;5.35;65.92
48862;BME280;34681;49.188;-0.374;2023-01-25T00:51:10;103427.69;;;4.64;66.68
48862;BME280;34681;49.188;-0.374;2023-01-25T00:53:36;103430.38;;;4.65;67.21
48862;BME280;34681;49.188;-0.374;2023-01-25T00:56:02;103422.31;;;5.23;65.60
48862;BME280;34681;49.188;-0.374;2023-01-25T00:58:27;103426.28;;;5.69;64.35
48862;BME280;34681;49.188;-0.374;2023-01-25T01:00:54;103437.09;;;5.70;64.47
48862;BME280;34681;49.188;-0.374;2023-01-25T01:03:19;103429.69;;;5.75;64.00
48862;BME280;34681;49.188;-0.374;2023-01-25T01:05:45;103429.59;;;5.21;65.38
48862;BME280;34681;49.188;-0.374;2023-01-25T01:08:11;103427.56;;;5.57;64.33
48862;BME280;34681;49.188;-0.374;2023-01-25T01:10:37;103426.75;;;5.55;64.37
48862;BME280;34681;49.188;-0.374;2023-01-25T01:13:02;103432.94;;;5.58;64.27
48862;BME280;34681;49.188;-0.374;2023-01-25T01:15:28;103430.00;;;5.36;64.69
48862;BME280;34681;49.188;-0.374;2023-01-25T01:17:53;103431.09;;;5.87;63.59
48862;BME280;34681;49.188;-0.374;2023-01-25T01:20:19;103434.28;;;6.01;62.90
48862;BME280;34681;49.188;-0.374;2023-01-25T01:22:44;103419.78;;;5.46;64.25
48862;BME280;34681;49.188;-0.374;2023-01-25T01:25:10;103422.47;;;4.87;65.57
48862;BME280;34681;49.188;-0.374;2023-01-25T01:27:37;103416.69;;;4.68;66.47
48862;BME280;34681;49.188;-0.374;2023-01-25T01:30:03;103416.88;;;5.23;65.13
48862;BME280;34681;49.188;-0.374;2023-01-25T01:32:29;103421.72;;;5.69;63.79
48862;BME280;34681;49.188;-0.374;2023-01-25T01:34:54;103417.13;;;5.43;64.70
48862;BME280;34681;49.188;-0.374;2023-01-25T01:37:20;103410.13;;;5.64;64.13
48862;BME280;34681;49.188;-0.374;2023-01-25T01:39:45;103420.16;;;5.34;63.96
48862;BME280;34681;49.188;-0.374;2023-01-25T01:42:10;103419.72;;;5.18;64.99
48862;BME280;34681;49.188;-0.374;2023-01-25T01:44:51;103419.66;;;5.77;63.70
48862;BME280;34681;49.188;-0.374;2023-01-25T01:47:27;103416.28;;;5.69;63.81
48862;BME280;34681;49.188;-0.374;2023-01-25T01:49:57;103426.44;;;5.64;63.95
48862;BME280;34681;49.188;-0.374;2023-01-25T01:52:31;103422.78;;;5.93;62.69
48862;BME280;34681;49.188;-0.374;2023-01-25T01:55:07;103422.81;;;5.35;64.24
48862;BME280;34681;49.188;-0.374;2023-01-25T01:57:52;103429.97;;;4.46;66.61
48862;BME280;34681;49.188;-0.374;2023-01-25T02:00:23;103422.19;;;4.67;66.77
48862;BME280;34681;49.188;-0.374;2023-01-25T02:02:49;103420.69;;;4.22;67.48
48862;BME280;34681;49.188;-0.374;2023-01-25T02:05:29;103411.63;;;5.17;65.50
48862;BME280;34681;49.188;-0.374;2023-01-25T02:07:56;103414.06;;;4.96;65.20
48862;BME280;34681;49.188;-0.374;2023-01-25T02:10:24;103417.06;;;5.17;65.20
48862;BME280;34681;49.188;-0.374;2023-01-25T02:12:53;103409.94;;;5.42;64.23
48862;BME280;34681;49.188;-0.374;2023-01-25T02:15:20;103412.75;;;5.39;64.43
48862;BME280;34681;49.188;-0.374;2023-01-25T02:17:46;103413.88;;;4.73;65.69
48862;BME280;34681;49.188;-0.374;2023-01-25T02:22:59;103417.09;;;4.22;67.66
48862;BME280;34681;49.188;-0.374;2023-01-25T02:25:26;103420.03;;;4.13;68.12
48862;BME280;34681;49.188;-0.374;2023-01-25T02:27:56;103417.75;;;4.30;68.32
48862;BME280;34681;49.188;-0.374;2023-01-25T02:30:23;103418.19;;;4.15;67.91
48862;BME280;34681;49.188;-0.374;2023-01-25T02:32:49;103417.09;;;3.86;68.72
48862;BME280;34681;49.188;-0.374;2023-01-25T02:35:41;103410.56;;;3.95;68.85
48862;BME280;34681;49.188;-0.374;2023-01-25T02:38:09;103415.25;;;3.88;69.10
48862;BME280;34681;49.188;-0.374;2023-01-25T02:40:44;103428.59;;;3.98;68.75
48862;BME280;34681;49.188;-0.374;2023-01-25T02:43:10;103415.66;;;3.73;69.58
48862;BME280;34681;49.188;-0.374;2023-01-25T02:45:36;103420.47;;;3.96;69.83
48862;BME280;34681;49.188;-0.374;2023-01-25T02:48:01;103413.66;;;4.81;66.87
48862;BME280;34681;49.188;-0.374;2023-01-25T02:50:26;103419.78;;;5.17;65.69
48862;BME280;34681;49.188;-0.374;2023-01-25T02:52:52;103413.16;;;4.66;66.39
48862;BME280;34681;49.188;-0.374;2023-01-25T02:55:17;103419.53;;;4.95;65.83
48862;BME280;34681;49.188;-0.374;2023-01-25T02:57:43;103424.13;;;4.62;66.68
48862;BME280;34681;49.188;-0.374;2023-01-25T03:00:08;103420.91;;;4.78;66.54
48862;BME280;34681;49.188;-0.374;2023-01-25T03:02:34;103424.59;;;5.07;64.91
48862;BME280;34681;49.188;-0.374;2023-01-25T03:04:59;103432.00;;;4.38;66.61
48862;BME280;34681;49.188;-0.374;2023-01-25T03:07:25;103431.78;;;3.78;68.70
48862;BME280;34681;49.188;-0.374;2023-01-25T03:09:50;103429.38;;;3.65;69.73
48862;BME280;34681;49.188;-0.374;2023-01-25T03:12:15;103427.78;;;3.92;69.16
48862;BME280;34681;49.188;-0.374;2023-01-25T03:14:41;103423.66;;;4.46;67.88
48862;BME280;34681;49.188;-0.374;2023-01-25T03:17:08;103426.38;;;4.77;66.44
48862;BME280;34681;49.188;-0.374;2023-01-25T03:19:34;103418.63;;;4.32;67.40
48862;BME280;34681;49.188;-0.374;2023-01-25T03:21:59;103419.44;;;4.02;68.48
48862;BME280;34681;49.188;-0.374;2023-01-25T03:24:24;103416.31;;;4.17;68.46
48862;BME280;34681;49.188;-0.374;2023-01-25T03:26:50;103413.84;;;4.08;68.23
48862;BME280;34681;49.188;-0.374;2023-01-25T03:29:34;103406.22;;;4.55;67.17
48862;BME280;34681;49.188;-0.374;2023-01-25T03:31:59;103405.97;;;4.33;67.36
48862;BME280;34681;49.188;-0.374;2023-01-25T03:34:24;103401.09;;;4.76;66.81
48862;BME280;34681;49.188;-0.374;2023-01-25T03:36:50;103400.25;;;5.04;65.72
48862;BME280;34681;49.188;-0.374;2023-01-25T03:39:15;103396.88;;;5.55;64.20
48862;BME280;34681;49.188;-0.374;2023-01-25T03:41:40;103399.66;;;5.80;63.48
48862;BME280;34681;49.188;-0.374;2023-01-25T03:44:07;103398.53;;;5.85;63.41
48862;BME280;34681;49.188;-0.374;2023-01-25T03:46:36;103402.75;;;5.96;62.96
48862;BME280;34681;49.188;-0.374;2023-01-25T03:49:01;103397.59;;;6.14;61.94
48862;BME280;34681;49.188;-0.374;2023-01-25T03:51:26;103401.41;;;6.09;62.66
48862;BME280;34681;49.188;-0.374;2023-01-25T03:53:52;103402.06;;;6.15;62.23
48862;BME280;34681;49.188;-0.374;2023-01-25T03:56:17;103390.75;;;6.28;61.88
48862;BME280;34681;49.188;-0.374;2023-01-25T03:58:44;103396.25;;;6.26;62.14
48862;BME280;34681;49.188;-0.374;2023-01-25T04:01:10;103396.28;;;6.00;62.70
48862;BME280;34681;49.188;-0.374;2023-01-25T04:03:36;103398.06;;;6.01;62.48
48862;BME280;34681;49.188;-0.374;2023-01-25T04:06:01;103390.69;;;6.04;62.26
48862;BME280;34681;49.188;-0.374;2023-01-25T04:08:27;103382.91;;;6.18;62.18
48862;BME280;34681;49.188;-0.374;2023-01-25T04:10:54;103383.44;;;6.30;61.90
48862;BME280;34681;49.188;-0.374;2023-01-25T04:13:20;103378.22;;;6.24;62.28
48862;BME280;34681;49.188;-0.374;2023-01-25T04:15:46;103380.31;;;6.40;61.64
48862;BME280;34681;49.188;-0.374;2023-01-25T04:18:12;103383.78;;;6.45;61.28
48862;BME280;34681;49.188;-0.374;2023-01-25T04:20:37;103385.50;;;6.48;60.71
48862;BME280;34681;49.188;-0.374;2023-01-25T04:23:03;103384.97;;;6.37;61.45
48862;BME280;34681;49.188;-0.374;2023-01-25T04:25:28;103392.34;;;6.08;62.32
48862;BME280;34681;49.188;-0.374;2023-01-25T04:27:54;103385.41;;;6.00;62.55
48862;BME280;34681;49.188;-0.374;2023-01-25T04:30:19;103380.25;;;5.36;63.52
48862;BME280;34681;49.188;-0.374;2023-01-25T04:32:45;103373.16;;;5.02;64.28
48862;BME280;34681;49.188;-0.374;2023-01-25T04:35:10;103380.72;;;5.77;62.48
48862;BME280;34681;49.188;-0.374;2023-01-25T04:37:35;103371.06;;;5.96;62.17
48862;BME280;34681;49.188;-0.374;2023-01-25T04:40:01;103371.31;;;5.87;62.50
48862;BME280;34681;49.188;-0.374;2023-01-25T04:42:26;103370.09;;;5.69;62.67
48862;BME280;34681;49.188;-0.374;2023-01-25T04:44:52;103359.47;;;5.89;62.42
48862;BME280;34681;49.188;-0.374;2023-01-25T04:47:17;103369.03;;;5.75;63.14
48862;BME280;34681;49.188;-0.374;2023-01-25T04:49:42;103364.97;;;6.14;61.94
48862;BME280;34681;49.188;-0.374;2023-01-25T04:52:08;103364.34;;;6.31;61.33
48862;BME280;34681;49.188;-0.374;2023-01-25T04:54:33;103357.78;;;5.85;62.07
48862;BME280;34681;49.188;-0.374;2023-01-25T04:56:58;103353.94;;;5.10;64.44
48862;BME280;34681;49.188;-0.374;2023-01-25T04:59:24;103356.16;;;5.25;64.29
48862;BME280;34681;49.188;-0.374;2023-01-25T05:01:49;103350.63;;;5.56;63.46
48862;BME280;34681;49.188;-0.374;2023-01-25T05:04:14;103349.50;;;5.62;63.47
48862;BME280;34681;49.188;-0.374;2023-01-25T05:06:40;103350.31;;;5.39;63.63
48862;BME280;34681;49.188;-0.374;2023-01-25T05:09:05;103348.16;;;5.21;64.41
48862;BME280;34681;49.188;-0.374;2023-01-25T05:11:30;103343.25;;;5.05;64.64
48862;BME280;34681;49.188;-0.374;2023-01-25T05:13:56;103346.22;;;4.96;65.28
48862;BME280;34681;49.188;-0.374;2023-01-25T05:16:21;103346.06;;;4.42;66.05
48862;BME280;34681;49.188;-0.374;2023-01-25T05:18:47;103343.28;;;4.43;66.58
48862;BME280;34681;49.188;-0.374;2023-01-25T05:21:12;103345.00;;;4.47;66.58
48862;BME280;34681;49.188;-0.374;2023-01-25T05:23:56;103347.88;;;4.09;67.68
48862;BME280;34681;49.188;-0.374;2023-01-25T05:26:22;103346.25;;;4.95;65.54
48862;BME280;34681;49.188;-0.374;2023-01-25T05:29:05;103348.31;;;5.71;62.89
48862;BME280;34681;49.188;-0.374;2023-01-25T05:31:31;103339.19;;;6.00;62.07
48862;BME280;34681;49.188;-0.374;2023-01-25T05:33:56;103346.34;;;6.02;62.08
48862;BME280;34681;49.188;-0.374;2023-01-25T05:36:21;103347.47;;;5.69;62.42
48862;BME280;34681;49.188;-0.374;2023-01-25T05:38:47;103353.59;;;5.49;63.31
48862;BME280;34681;49.188;-0.374;2023-01-25T05:41:12;103351.31;;;5.07;64.33
48862;BME280;34681;49.188;-0.374;2023-01-25T05:43:37;103355.38;;;5.22;64.09
48862;BME280;34681;49.188;-0.374;2023-01-25T05:46:03;103355.31;;;4.66;65.48
48862;BME280;34681;49.188;-0.374;2023-01-25T05:48:29;103362.00;;;4.84;65.69
48862;BME280;34681;49.188;-0.374;2023-01-25T05:50:56;103356.00;;;5.02;64.44
48862;BME280;34681;49.188;-0.374;2023-01-25T05:53:26;103354.81;;;4.19;66.30
48862;BME280;34681;49.188;-0.374;2023-01-25T05:55:52;103357.31;;;4.27;66.81
48862;BME280;34681;49.188;-0.374;2023-01-25T05:58:17;103361.66;;;5.24;63.98
48862;BME280;34681;49.188;-0.374;2023-01-25T06:00:43;103366.25;;;5.50;63.22
48862;BME280;34681;49.188;-0.374;2023-01-25T06:03:08;103363.53;;;4.92;64.42
48862;BME280;34681;49.188;-0.374;2023-01-25T06:05:33;103352.78;;;4.89;64.70
48862;BME280;34681;49.188;-0.374;2023-01-25T06:07:59;103361.25;;;5.08;64.20
48862;BME280;34681;49.188;-0.374;2023-01-25T06:10:24;103358.53;;;4.78;64.58
48862;BME280;34681;49.188;-0.374;2023-01-25T06:12:50;103358.34;;;4.85;65.16
48862;BME280;34681;49.188;-0.374;2023-01-25T06:15:21;103363.28;;;4.70;64.94
48862;BME280;34681;49.188;-0.374;2023-01-25T06:17:46;103357.47;;;4.22;66.31
48862;BME280;34681;49.188;-0.374;2023-01-25T06:20:11;103359.16;;;4.26;66.69
48862;BME280;34681;49.188;-0.374;2023-01-25T06:22:37;103347.34;;;4.60;65.41
48862;BME280;34681;49.188;-0.374;2023-01-25T06:25:02;103355.44;;;4.29;66.73
48862;BME280;34681;49.188;-0.374;2023-01-25T06:27:28;103351.78;;;4.62;66.03
48862;BME280;34681;49.188;-0.374;2023-01-25T06:29:53;103358.72;;;5.02;64.81
48862;BME280;34681;49.188;-0.374;2023-01-25T06:32:19;103348.50;;;4.51;65.99
48862;BME280;34681;49.188;-0.374;2023-01-25T06:34:44;103355.69;;;4.52;66.27
48862;BME280;34681;49.188;-0.374;2023-01-25T06:37:10;103359.25;;;4.21;67.24
48862;BME280;34681;49.188;-0.374;2023-01-25T06:39:35;103357.25;;;3.95;68.25
48862;BME280;34681;49.188;-0.374;2023-01-25T06:42:01;103361.44;;;4.09;67.95
48862;BME280;34681;49.188;-0.374;2023-01-25T06:44:26;103354.09;;;4.12;67.85
48862;BME280;34681;49.188;-0.374;2023-01-25T06:46:51;103370.56;;;4.05;68.58
48862;BME280;34681;49.188;-0.374;2023-01-25T06:49:17;103365.00;;;3.77;69.69
48862;BME280;34681;49.188;-0.374;2023-01-25T06:51:42;103359.72;;;3.71;70.26
48862;BME280;34681;49.188;-0.374;2023-01-25T06:54:07;103364.59;;;3.92;69.47
48862;BME280;34681;49.188;-0.374;2023-01-25T06:56:33;103361.00;;;3.91;68.99
48862;BME280;34681;49.188;-0.374;2023-01-25T06:58:58;103358.84;;;4.04;69.13
48862;BME280;34681;49.188;-0.374;2023-01-25T07:01:23;103354.81;;;4.19;68.77
48862;BME280;34681;49.188;-0.374;2023-01-25T07:03:56;103353.44;;;4.97;66.38
48862;BME280;34681;49.188;-0.374;2023-01-25T07:06:23;103356.75;;;4.46;66.49
48862;BME280;34681;49.188;-0.374;2023-01-25T07:08:49;103350.97;;;4.59;67.45
48862;BME280;34681;49.188;-0.374;2023-01-25T07:11:15;103351.13;;;5.41;64.77
48862;BME280;34681;49.188;-0.374;2023-01-25T07:13:44;103352.22;;;5.63;63.59
48862;BME280;34681;49.188;-0.374;2023-01-25T07:16:12;103350.59;;;4.71;66.17
48862;BME280;34681;49.188;-0.374;2023-01-25T07:18:38;103351.59;;;4.68;66.67
48862;BME280;34681;49.188;-0.374;2023-01-25T07:21:09;103357.75;;;4.75;66.04
48862;BME280;34681;49.188;-0.374;2023-01-25T07:23:35;103354.88;;;4.79;65.98
48862;BME280;34681;49.188;-0.374;2023-01-25T07:26:03;103355.44;;;4.91;65.92
48862;BME280;34681;49.188;-0.374;2023-01-25T07:28:30;103351.25;;;4.81;65.53
48862;BME280;34681;49.188;-0.374;2023-01-25T07:30:55;103356.00;;;4.41;67.56
48862;BME280;34681;49.188;-0.374;2023-01-25T07:33:21;103357.63;;;4.78;66.71
48862;BME280;34681;49.188;-0.374;2023-01-25T07:35:47;103360.34;;;4.48;67.54
48862;BME280;34681;49.188;-0.374;2023-01-25T07:38:15;103361.28;;;4.77;67.06
48862;BME280;34681;49.188;-0.374;2023-01-25T07:40:40;103352.44;;;5.00;66.07
48862;BME280;34681;49.188;-0.374;2023-01-25T07:43:07;103353.69;;;5.18;65.33
48862;BME280;34681;49.188;-0.374;2023-01-25T07:45:32;103345.38;;;4.65;66.37
48862;BME280;34681;49.188;-0.374;2023-01-25T07:47:58;103354.34;;;4.98;65.46
48862;BME280;34681;49.188;-0.374;2023-01-25T07:50:27;103352.16;;;5.37;64.86
48862;BME280;34681;49.188;-0.374;2023-01-25T07:52:53;103350.22;;;5.13;65.37
48862;BME280;34681;49.188;-0.374;2023-01-25T07:55:19;103355.47;;;5.47;64.78
48862;BME280;34681;49.188;-0.374;2023-01-25T07:57:44;103348.56;;;5.08;65.45
48862;BME280;34681;49.188;-0.374;2023-01-25T08:00:11;103351.84;;;5.74;63.64
48862;BME280;34681;49.188;-0.374;2023-01-25T08:02:37;103343.75;;;5.73;63.13
48862;BME280;34681;49.188;-0.374;2023-01-25T08:05:03;103343.50;;;5.79;63.61
48862;BME280;34681;49.188;-0.374;2023-01-25T08:07:30;103342.34;;;5.86;63.32
48862;BME280;34681;49.188;-0.374;2023-01-25T08:09:56;103345.53;;;5.46;63.51
48862;BME280;34681;49.188;-0.374;2023-01-25T08:12:21;103342.78;;;5.74;63.43
48862;BME280;34681;49.188;-0.374;2023-01-25T08:14:47;103346.75;;;5.90;62.92
48862;BME280;34681;49.188;-0.374;2023-01-25T08:17:14;103338.03;;;5.80;63.11
48862;BME280;34681;49.188;-0.374;2023-01-25T08:19:39;103343.00;;;5.41;64.34
48862;BME280;34681;49.188;-0.374;2023-01-25T08:22:06;103335.97;;;5.06;65.58
48862;BME280;34681;49.188;-0.374;2023-01-25T08:24:31;103340.56;;;4.74;65.82
48862;BME280;34681;49.188;-0.374;2023-01-25T08:26:57;103336.94;;;5.03;65.83
48862;BME280;34681;49.188;-0.374;2023-01-25T08:29:22;103338.03;;;5.80;63.15
48862;BME280;34681;49.188;-0.374;2023-01-25T08:31:48;103338.25;;;5.74;63.82
48862;BME280;34681;49.188;-0.374;2023-01-25T08:34:13;103338.06;;;5.79;63.64
48862;BME280;34681;49.188;-0.374;2023-01-25T08:36:39;103338.47;;;5.95;62.92
48862;BME280;34681;49.188;-0.374;2023-01-25T08:39:06;103330.84;;;6.31;62.08
48862;BME280;34681;49.188;-0.374;2023-01-25T08:41:33;103340.69;;;5.82;63.43
48862;BME280;34681;49.188;-0.374;2023-01-25T08:43:59;103335.88;;;5.91;63.35
48862;BME280;34681;49.188;-0.374;2023-01-25T08:46:30;103325.03;;;6.40;61.70
48862;BME280;34681;49.188;-0.374;2023-01-25T08:48:57;103324.63;;;6.51;61.50
48862;BME280;34681;49.188;-0.374;2023-01-25T08:51:24;103333.44;;;6.09;62.68
48862;BME280;34681;49.188;-0.374;2023-01-25T08:53:49;103334.38;;;6.33;62.23
48862;BME280;34681;49.188;-0.374;2023-01-25T08:56:15;103331.38;;;6.40;62.14
48862;BME280;34681;49.188;-0.374;2023-01-25T08:58:44;103325.75;;;6.92;60.39
48862;BME280;34681;49.188;-0.374;2023-01-25T09:01:12;103332.28;;;6.88;60.81
48862;BME280;34681;49.188;-0.374;2023-01-25T09:03:42;103329.38;;;6.45;61.22
48862;BME280;34681;49.188;-0.374;2023-01-25T09:06:08;103327.22;;;6.30;61.83
48862;BME280;34681;49.188;-0.374;2023-01-25T09:08:35;103327.31;;;5.76;63.37
48862;BME280;34681;49.188;-0.374;2023-01-25T09:11:22;103333.34;;;5.59;64.05
48862;BME280;34681;49.188;-0.374;2023-01-25T09:13:48;103330.50;;;5.62;63.90
48862;BME280;34681;49.188;-0.374;2023-01-25T09:16:16;103326.53;;;6.48;61.79
48862;BME280;34681;49.188;-0.374;2023-01-25T09:18:43;103330.00;;;6.52;62.08
48862;BME280;34681;49.188;-0.374;2023-01-25T09:21:14;103330.22;;;6.71;61.04
48862;BME280;34681;49.188;-0.374;2023-01-25T09:23:40;103332.22;;;6.66;61.69
48862;BME280;34681;49.188;-0.374;2023-01-25T09:26:08;103322.59;;;7.02;60.71
48862;BME280;34681;49.188;-0.374;2023-01-25T09:28:34;103325.31;;;7.02;60.87
48862;BME280;34681;49.188;-0.374;2023-01-25T09:31:02;103319.25;;;7.18;60.91
48862;BME280;34681;49.188;-0.374;2023-01-25T09:33:32;103322.81;;;7.20;60.96
48862;BME280;34681;49.188;-0.374;2023-01-25T09:35:58;103315.97;;;7.10;61.30
48862;BME280;34681;49.188;-0.374;2023-01-25T09:38:24;103311.91;;;7.42;60.05
48862;BME280;34681;49.188;-0.374;2023-01-25T09:46:21;103301.97;;;7.41;60.55
48862;BME280;34681;49.188;-0.374;2023-01-25T09:49:02;103301.03;;;7.42;60.61
48862;BME280;34681;49.188;-0.374;2023-01-25T09:54:27;103291.88;;;7.65;60.18
48862;BME280;34681;49.188;-0.374;2023-01-25T09:56:57;103292.69;;;7.67;60.24
48862;BME280;34681;49.188;-0.374;2023-01-25T09:59:26;103294.94;;;7.57;60.55
48862;BME280;34681;49.188;-0.374;2023-01-25T10:04:34;103288.56;;;7.78;60.08
48862;BME280;34681;49.188;-0.374;2023-01-25T10:07:26;103286.44;;;8.05;58.68
48862;BME280;34681;49.188;-0.374;2023-01-25T10:09:58;103276.69;;;8.00;58.83
48862;BME280;34681;49.188;-0.374;2023-01-25T10:12:26;103283.38;;;7.93;59.46
48862;BME280;34681;49.188;-0.374;2023-01-25T10:14:53;103281.06;;;8.04;59.18
48862;BME280;34681;49.188;-0.374;2023-01-25T10:22:22;103273.63;;;8.28;58.65
48862;BME280;34681;49.188;-0.374;2023-01-25T10:27:52;103264.81;;;8.21;58.76
48862;BME280;34681;49.188;-0.374;2023-01-25T10:30:30;103275.72;;;8.21;58.81
48862;BME280;34681;49.188;-0.374;2023-01-25T10:33:10;103274.03;;;8.39;58.06
48862;BME280;34681;49.188;-0.374;2023-01-25T10:35:40;103273.94;;;8.40;58.07
48862;BME280;34681;49.188;-0.374;2023-01-25T10:38:26;103269.38;;;8.41;58.44
48862;BME280;34681;49.188;-0.374;2023-01-25T10:41:00;103267.63;;;8.59;57.71
48862;BME280;34681;49.188;-0.374;2023-01-25T10:43:27;103257.38;;;8.45;58.42
48862;BME280;34681;49.188;-0.374;2023-01-25T10:45:53;103250.28;;;8.60;57.99
48862;BME280;34681;49.188;-0.374;2023-01-25T10:48:35;103253.91;;;8.79;57.51
48862;BME280;34681;49.188;-0.374;2023-01-25T10:51:01;103243.66;;;8.65;58.26
48862;BME280;34681;49.188;-0.374;2023-01-25T10:53:35;103235.69;;;8.61;58.26
48862;BME280;34681;49.188;-0.374;2023-01-25T10:56:23;103236.19;;;8.88;57.47
48862;BME280;34681;49.188;-0.374;2023-01-25T10:58:51;103234.63;;;8.82;57.71
48862;BME280;34681;49.188;-0.374;2023-01-25T11:01:29;103237.34;;;9.01;57.27
48862;BME280;34681;49.188;-0.374;2023-01-25T11:03:54;103232.25;;;8.93;57.58
48862;BME280;34681;49.188;-0.374;2023-01-25T11:08:56;103225.78;;;8.96;57.08
48862;BME280;34681;49.188;-0.374;2023-01-25T11:11:29;103215.81;;;8.95;57.49
48862;BME280;34681;49.188;-0.374;2023-01-25T11:13:56;103212.38;;;9.09;57.18
48862;BME280;34681;49.188;-0.374;2023-01-25T11:16:34;103209.50;;;9.12;57.44
48862;BME280;34681;49.188;-0.374;2023-01-25T11:19:02;103200.94;;;9.19;56.99
48862;BME280;34681;49.188;-0.374;2023-01-25T11:21:50;103194.09;;;9.11;56.74
48862;BME280;34681;49.188;-0.374;2023-01-25T11:24:16;103190.47;;;9.10;57.38
48862;BME280;34681;49.188;-0.374;2023-01-25T11:26:43;103186.53;;;9.16;56.98
48862;BME280;34681;49.188;-0.374;2023-01-25T11:31:40;103176.88;;;9.09;56.95
48862;BME280;34681;49.188;-0.374;2023-01-25T11:34:20;103177.28;;;9.18;56.94
48862;BME280;34681;49.188;-0.374;2023-01-25T11:40:28;103177.78;;;9.26;56.58
48862;BME280;34681;49.188;-0.374;2023-01-25T11:43:19;103162.50;;;9.22;56.80
48862;BME280;34681;49.188;-0.374;2023-01-25T11:49:13;103156.47;;;9.16;57.03
48862;BME280;34681;49.188;-0.374;2023-01-25T11:59:59;103123.53;;;9.53;56.53
48862;BME280;34681;49.188;-0.374;2023-01-25T12:03:03;103108.66;;;9.42;56.75
48862;BME280;34681;49.188;-0.374;2023-01-25T12:28:46;103075.47;;;9.32;56.77
48862;BME280;34681;49.188;-0.374;2023-01-25T12:31:21;103068.44;;;9.28;57.11
48862;BME280;34681;49.188;-0.374;2023-01-25T12:36:24;103061.78;;;9.49;56.46
48862;BME280;34681;49.188;-0.374;2023-01-25T12:39:00;103049.19;;;9.47;57.01
48862;BME280;34681;49.188;-0.374;2023-01-25T12:44:30;103036.75;;;9.57;56.83
48862;BME280;34681;49.188;-0.374;2023-01-25T12:47:10;103033.53;;;9.66;56.64
48862;BME280;34681;49.188;-0.374;2023-01-25T12:49:43;103024.75;;;9.77;56.31
48862;BME280;34681;49.188;-0.374;2023-01-25T12:52:28;103024.78;;;9.75;56.61
48862;BME280;34681;49.188;-0.374;2023-01-25T12:54:58;103013.03;;;9.57;57.15
48862;BME280;34681;49.188;-0.374;2023-01-25T13:03:43;103011.00;;;9.45;57.55
48862;BME280;34681;49.188;-0.374;2023-01-25T13:11:55;102999.59;;;9.70;56.80
48862;BME280;34681;49.188;-0.374;2023-01-25T13:14:37;103002.31;;;9.70;57.13
48862;BME280;34681;49.188;-0.374;2023-01-25T13:17:22;103000.34;;;9.56;57.42
48862;BME280;34681;49.188;-0.374;2023-01-25T13:19:50;103000.63;;;9.68;57.04
48862;BME280;34681;49.188;-0.374;2023-01-25T13:27:40;102996.13;;;9.82;56.64
48862;BME280;34681;49.188;-0.374;2023-01-25T13:37:59;102993.31;;;9.84;56.47
48862;BME280;34681;49.188;-0.374;2023-01-25T13:40:31;102990.41;;;9.71;57.22
48862;BME280;34681;49.188;-0.374;2023-01-25T13:42:59;102986.25;;;9.64;57.31
48862;BME280;34681;49.188;-0.374;2023-01-25T13:45:25;102983.06;;;9.56;57.70
48862;BME280;34681;49.188;-0.374;2023-01-25T13:48:04;102989.25;;;9.75;57.19
48862;BME280;34681;49.188;-0.374;2023-01-25T13:50:38;102984.59;;;9.62;57.96
48862;BME280;34681;49.188;-0.374;2023-01-25T13:55:41;102982.75;;;9.78;57.69
48862;BME280;34681;49.188;-0.374;2023-01-25T13:58:09;102981.88;;;9.77;57.80
48862;BME280;34681;49.188;-0.374;2023-01-25T14:00:35;102969.94;;;9.63;58.35
48862;BME280;34681;49.188;-0.374;2023-01-25T14:03:03;102966.06;;;9.82;57.61
48862;BME280;34681;49.188;-0.374;2023-01-25T14:05:29;102968.19;;;9.62;58.71
48862;BME280;34681;49.188;-0.374;2023-01-25T14:07:55;102963.59;;;9.94;57.47
48862;BME280;34681;49.188;-0.374;2023-01-25T14:10:24;102965.63;;;9.74;58.07
48862;BME280;34681;49.188;-0.374;2023-01-25T14:12:51;102964.75;;;9.74;58.38
48862;BME280;34681;49.188;-0.374;2023-01-25T14:17:44;102977.38;;;9.76;57.80
48862;BME280;34681;49.188;-0.374;2023-01-25T14:20:20;102982.91;;;9.75;57.64
48862;BME280;34681;49.188;-0.374;2023-01-25T14:22:49;102978.94;;;9.65;57.74
48862;BME280;34681;49.188;-0.374;2023-01-25T14:25:18;102982.88;;;9.59;58.47
48862;BME280;34681;49.188;-0.374;2023-01-25T14:27:46;102986.03;;;9.51;58.81
48862;BME280;34681;49.188;-0.374;2023-01-25T14:30:20;102977.34;;;9.45;58.88
48862;BME280;34681;49.188;-0.374;2023-01-25T14:32:47;102982.94;;;9.42;58.85
48862;BME280;34681;49.188;-0.374;2023-01-25T14:37:53;102981.50;;;9.01;59.89
48862;BME280;34681;49.188;-0.374;2023-01-25T14:40:20;102975.44;;;9.29;59.41
48862;BME280;34681;49.188;-0.374;2023-01-25T14:42:47;102977.66;;;9.39;59.38
48862;BME280;34681;49.188;-0.374;2023-01-25T14:45:14;102969.69;;;9.01;60.07